sensor_id;sensor_type;location;lat;lon;timestamp;P1;durP1;ratioP1;P2;durP2;ratioP2
61112;SDS011;47184;57.998;56.184;2023-08-12T00:00:36;0.00;;;0.00;;
61112;SDS011;47184;57.998;56.184;2023-08-12T00:03:02;0.00;;;0.00;;
61112;SDS011;47184;57.998;56.184;2023-08-12T00:05:28;0.00;;;0.00;;
61112;SDS011;47184;57.998;56.184;2023-08-12T00:07:55;0.00;;;0.00;;
61112;SDS011;47184;57.998;56.184;2023-08-12T00:10:22;0.00;;;0.00;;
61112;SDS011;47184;57.998;56.184;2023-08-12T00:12:48;0.00;;;0.00;;
61112;SDS011;47184;57.998;56.184;2023-08-12T00:15:14;0.00;;;0.00;;
61112;SDS011;47184;57.998;56.184;2023-08-12T00:17:40;0.00;;;0.00;;
61112;SDS011;47184;57.998;56.184;2023-08-12T00:20:07;0.00;;;0.00;;
61112;SDS011;47184;57.998;56.184;2023-08-12T00:22:37;0.00;;;0.00;;
61112;SDS011;47184;57.998;56.184;2023-08-12T00:25:05;0.00;;;0.00;;
61112;SDS011;47184;57.998;56.184;2023-08-12T00:27:32;0.00;;;0.00;;
61112;SDS011;47184;57.998;56.184;2023-08-12T00:29:58;0.00;;;0.00;;
61112;SDS011;47184;57.998;56.184;2023-08-12T00:32:25;0.00;;;0.00;;
61112;SDS011;47184;57.998;56.184;2023-08-12T00:34:51;0.00;;;0.00;;
61112;SDS011;47184;57.998;56.184;2023-08-12T00:37:17;0.05;;;0.00;;
61112;SDS011;47184;57.998;56.184;2023-08-12T00:39:45;0.00;;;0.00;;
61112;SDS011;47184;57.998;56.184;2023-08-12T00:42:11;0.00;;;0.00;;
61112;SDS011;47184;57.998;56.184;2023-08-12T00:44:37;0.00;;;0.00;;
61112;SDS011;47184;57.998;56.184;2023-08-12T00:47:04;0.00;;;0.00;;
61112;SDS011;47184;57.998;56.184;2023-08-12T00:49:31;0.00;;;0.00;;
61112;SDS011;47184;57.998;56.184;2023-08-12T00:51:58;0.00;;;0.00;;
61112;SDS011;47184;57.998;56.184;2023-08-12T00:54:25;0.00;;;0.00;;
61112;SDS011;47184;57.998;56.184;2023-08-12T00:56:52;0.00;;;0.00;;
61112;SDS011;47184;57.998;56.184;2023-08-12T00:59:19;0.00;;;0.00;;
61112;SDS011;47184;57.998;56.184;2023-08-12T01:01:47;0.00;;;0.00;;
61112;SDS011;47184;57.998;56.184;2023-08-12T01:04:13;0.00;;;0.00;;
61112;SDS011;47184;57.998;56.184;2023-08-12T01:06:40;0.00;;;0.00;;
61112;SDS011;47184;57.998;56.184;2023-08-12T01:09:09;0.00;;;0.00;;
61112;SDS011;47184;57.998;56.184;2023-08-12T01:11:39;0.00;;;0.00;;
61112;SDS011;47184;57.998;56.184;2023-08-12T01:14:21;0.00;;;0.00;;
61112;SDS011;47184;57.998;56.184;2023-08-12T01:16:54;0.32;;;0.00;;
61112;SDS011;47184;57.998;56.184;2023-08-12T01:19:37;0.00;;;0.00;;
61112;SDS011;47184;57.998;56.184;2023-08-12T01:22:09;0.47;;;0.00;;
61112;SDS011;47184;57.998;56.184;2023-08-12T01:27:04;0.00;;;0.00;;
61112;SDS011;47184;57.998;56.184;2023-08-12T01:29:31;0.00;;;0.00;;
61112;SDS011;47184;57.998;56.184;2023-08-12T01:32:17;0.00;;;0.00;;
61112;SDS011;47184;57.998;56.184;2023-08-12T01:34:47;0.00;;;0.00;;
61112;SDS011;47184;57.998;56.184;2023-08-12T01:37:23;0.00;;;0.00;;
61112;SDS011;47184;57.998;56.184;2023-08-12T01:39:52;0.00;;;0.00;;
61112;SDS011;47184;57.998;56.184;2023-08-12T01:42:20;0.00;;;0.00;;
61112;SDS011;47184;57.998;56.184;2023-08-12T01:44:47;0.00;;;0.00;;
61112;SDS011;47184;57.998;56.184;2023-08-12T01:47:13;0.00;;;0.00;;
61112;SDS011;47184;57.998;56.184;2023-08-12T01:49:39;0.00;;;0.00;;
61112;SDS011;47184;57.998;56.184;2023-08-12T01:52:05;0.00;;;0.00;;
61112;SDS011;47184;57.998;56.184;2023-08-12T01:54:32;0.00;;;0.00;;
61112;SDS011;47184;57.998;56.184;2023-08-12T01:57:00;0.00;;;0.00;;
61112;SDS011;47184;57.998;56.184;2023-08-12T01:59:27;0.00;;;0.00;;
61112;SDS011;47184;57.998;56.184;2023-08-12T02:01:53;0.10;;;0.00;;
61112;SDS011;47184;57.998;56.184;2023-08-12T02:04:19;0.00;;;0.00;;
61112;SDS011;47184;57.998;56.184;2023-08-12T02:06:45;0.00;;;0.00;;
61112;SDS011;47184;57.998;56.184;2023-08-12T02:09:11;0.00;;;0.00;;
61112;SDS011;47184;57.998;56.184;2023-08-12T02:11:37;0.20;;;0.00;;
61112;SDS011;47184;57.998;56.184;2023-08-12T02:14:04;0.00;;;0.00;;
61112;SDS011;47184;57.998;56.184;2023-08-12T02:16:30;0.00;;;0.00;;
61112;SDS011;47184;57.998;56.184;2023-08-12T02:19:16;0.00;;;0.00;;
61112;SDS011;47184;57.998;56.184;2023-08-12T02:21:42;0.03;;;0.00;;
61112;SDS011;47184;57.998;56.184;2023-08-12T02:24:08;0.00;;;0.00;;
61112;SDS011;47184;57.998;56.184;2023-08-12T02:26:38;0.00;;;0.00;;
61112;SDS011;47184;57.998;56.184;2023-08-12T02:29:04;0.00;;;0.00;;
61112;SDS011;47184;57.998;56.184;2023-08-12T02:31:31;0.00;;;0.00;;
61112;SDS011;47184;57.998;56.184;2023-08-12T02:33:57;0.00;;;0.00;;
61112;SDS011;47184;57.998;56.184;2023-08-12T02:36:25;0.00;;;0.00;;
61112;SDS011;47184;57.998;56.184;2023-08-12T02:38:55;0.00;;;0.00;;
61112;SDS011;47184;57.998;56.184;2023-08-12T02:41:21;0.00;;;0.00;;
61112;SDS011;47184;57.998;56.184;2023-08-12T02:43:47;0.00;;;0.00;;
61112;SDS011;47184;57.998;56.184;2023-08-12T02:46:14;0.63;;;0.00;;
61112;SDS011;47184;57.998;56.184;2023-08-12T02:48:44;0.00;;;0.00;;
61112;SDS011;47184;57.998;56.184;2023-08-12T02:51:11;0.00;;;0.00;;
61112;SDS011;47184;57.998;56.184;2023-08-12T02:53:37;0.17;;;0.00;;
61112;SDS011;47184;57.998;56.184;2023-08-12T02:56:03;0.00;;;0.00;;
61112;SDS011;47184;57.998;56.184;2023-08-12T02:58:29;0.00;;;0.00;;
61112;SDS011;47184;57.998;56.184;2023-08-12T03:00:55;0.00;;;0.00;;
61112;SDS011;47184;57.998;56.184;2023-08-12T03:03:21;0.00;;;0.00;;
61112;SDS011;47184;57.998;56.184;2023-08-12T03:05:48;0.00;;;0.00;;
61112;SDS011;47184;57.998;56.184;2023-08-12T03:08:15;0.00;;;0.00;;
61112;SDS011;47184;57.998;56.184;2023-08-12T03:10:44;0.00;;;0.00;;
61112;SDS011;47184;57.998;56.184;2023-08-12T03:13:12;0.08;;;0.00;;
61112;SDS011;47184;57.998;56.184;2023-08-12T03:15:38;0.00;;;0.00;;
61112;SDS011;47184;57.998;56.184;2023-08-12T03:18:06;0.00;;;0.00;;
61112;SDS011;47184;57.998;56.184;2023-08-12T03:20:32;0.00;;;0.00;;
61112;SDS011;47184;57.998;56.184;2023-08-12T03:22:58;0.00;;;0.00;;
61112;SDS011;47184;57.998;56.184;2023-08-12T03:25:26;0.00;;;0.00;;
61112;SDS011;47184;57.998;56.184;2023-08-12T03:27:52;0.00;;;0.00;;
61112;SDS011;47184;57.998;56.184;2023-08-12T03:30:19;0.20;;;0.00;;
61112;SDS011;47184;57.998;56.184;2023-08-12T03:32:48;0.08;;;0.00;;
61112;SDS011;47184;57.998;56.184;2023-08-12T03:35:15;0.00;;;0.00;;
61112;SDS011;47184;57.998;56.184;2023-08-12T03:37:42;0.00;;;0.00;;
61112;SDS011;47184;57.998;56.184;2023-08-12T03:40:08;0.00;;;0.00;;
61112;SDS011;47184;57.998;56.184;2023-08-12T03:42:37;0.00;;;0.00;;
61112;SDS011;47184;57.998;56.184;2023-08-12T03:45:03;0.10;;;0.00;;
61112;SDS011;47184;57.998;56.184;2023-08-12T03:47:32;0.00;;;0.00;;
61112;SDS011;47184;57.998;56.184;2023-08-12T03:49:58;0.00;;;0.00;;
61112;SDS011;47184;57.998;56.184;2023-08-12T03:52:24;0.05;;;0.00;;
61112;SDS011;47184;57.998;56.184;2023-08-12T03:54:50;0.10;;;0.00;;
61112;SDS011;47184;57.998;56.184;2023-08-12T03:57:19;0.00;;;0.00;;
61112;SDS011;47184;57.998;56.184;2023-08-12T03:59:47;0.00;;;0.00;;
61112;SDS011;47184;57.998;56.184;2023-08-12T04:02:13;0.00;;;0.00;;
61112;SDS011;47184;57.998;56.184;2023-08-12T04:04:39;0.00;;;0.00;;
61112;SDS011;47184;57.998;56.184;2023-08-12T04:07:05;0.00;;;0.00;;
61112;SDS011;47184;57.998;56.184;2023-08-12T04:09:31;0.00;;;0.00;;
61112;SDS011;47184;57.998;56.184;2023-08-12T04:11:57;0.00;;;0.00;;
61112;SDS011;47184;57.998;56.184;2023-08-12T04:14:23;0.10;;;0.00;;
61112;SDS011;47184;57.998;56.184;2023-08-12T04:16:51;0.00;;;0.00;;
61112;SDS011;47184;57.998;56.184;2023-08-12T04:19:17;0.00;;;0.00;;
61112;SDS011;47184;57.998;56.184;2023-08-12T04:21:43;0.00;;;0.00;;
61112;SDS011;47184;57.998;56.184;2023-08-12T04:24:12;0.00;;;0.00;;
61112;SDS011;47184;57.998;56.184;2023-08-12T04:26:39;0.00;;;0.00;;
61112;SDS011;47184;57.998;56.184;2023-08-12T04:29:06;0.00;;;0.00;;
61112;SDS011;47184;57.998;56.184;2023-08-12T04:31:36;0.05;;;0.00;;
61112;SDS011;47184;57.998;56.184;2023-08-12T04:34:02;0.00;;;0.00;;
61112;SDS011;47184;57.998;56.184;2023-08-12T04:36:30;0.15;;;0.00;;
61112;SDS011;47184;57.998;56.184;2023-08-12T04:38:59;0.00;;;0.00;;
61112;SDS011;47184;57.998;56.184;2023-08-12T04:41:26;0.00;;;0.00;;
61112;SDS011;47184;57.998;56.184;2023-08-12T04:43:53;0.00;;;0.00;;
61112;SDS011;47184;57.998;56.184;2023-08-12T04:46:21;0.25;;;0.00;;
61112;SDS011;47184;57.998;56.184;2023-08-12T04:48:47;0.32;;;0.00;;
61112;SDS011;47184;57.998;56.184;2023-08-12T04:51:13;0.00;;;0.00;;
61112;SDS011;47184;57.998;56.184;2023-08-12T04:53:40;0.00;;;0.00;;
61112;SDS011;47184;57.998;56.184;2023-08-12T04:56:06;0.20;;;0.00;;
61112;SDS011;47184;57.998;56.184;2023-08-12T04:58:33;0.00;;;0.00;;
61112;SDS011;47184;57.998;56.184;2023-08-12T05:01:00;0.00;;;0.00;;
61112;SDS011;47184;57.998;56.184;2023-08-12T05:03:27;0.10;;;0.00;;
61112;SDS011;47184;57.998;56.184;2023-08-12T05:05:54;0.00;;;0.00;;
61112;SDS011;47184;57.998;56.184;2023-08-12T05:08:24;0.00;;;0.00;;
61112;SDS011;47184;57.998;56.184;2023-08-12T05:10:51;0.00;;;0.00;;
61112;SDS011;47184;57.998;56.184;2023-08-12T05:13:17;0.00;;;0.00;;
61112;SDS011;47184;57.998;56.184;2023-08-12T05:15:46;0.00;;;0.00;;
61112;SDS011;47184;57.998;56.184;2023-08-12T05:18:14;0.00;;;0.00;;
61112;SDS011;47184;57.998;56.184;2023-08-12T05:20:41;0.00;;;0.00;;
61112;SDS011;47184;57.998;56.184;2023-08-12T05:23:08;0.00;;;0.00;;
61112;SDS011;47184;57.998;56.184;2023-08-12T05:25:34;0.00;;;0.00;;
61112;SDS011;47184;57.998;56.184;2023-08-12T05:28:00;0.00;;;0.00;;
61112;SDS011;47184;57.998;56.184;2023-08-12T05:30:26;0.00;;;0.00;;
61112;SDS011;47184;57.998;56.184;2023-08-12T05:32:52;0.00;;;0.00;;
61112;SDS011;47184;57.998;56.184;2023-08-12T05:35:18;0.00;;;0.00;;
61112;SDS011;47184;57.998;56.184;2023-08-12T05:37:44;0.00;;;0.00;;
61112;SDS011;47184;57.998;56.184;2023-08-12T05:40:10;0.00;;;0.00;;
61112;SDS011;47184;57.998;56.184;2023-08-12T05:42:37;0.00;;;0.00;;
61112;SDS011;47184;57.998;56.184;2023-08-12T05:45:03;0.00;;;0.00;;
61112;SDS011;47184;57.998;56.184;2023-08-12T05:47:32;0.00;;;0.00;;
61112;SDS011;47184;57.998;56.184;2023-08-12T05:49:59;0.00;;;0.00;;
61112;SDS011;47184;57.998;56.184;2023-08-12T05:52:26;0.00;;;0.00;;
61112;SDS011;47184;57.998;56.184;2023-08-12T05:54:52;0.00;;;0.00;;
61112;SDS011;47184;57.998;56.184;2023-08-12T05:57:18;0.00;;;0.00;;
61112;SDS011;47184;57.998;56.184;2023-08-12T05:59:44;0.00;;;0.00;;
61112;SDS011;47184;57.998;56.184;2023-08-12T06:02:10;0.00;;;0.00;;
61112;SDS011;47184;57.998;56.184;2023-08-12T06:04:36;0.00;;;0.00;;
61112;SDS011;47184;57.998;56.184;2023-08-12T06:07:02;0.00;;;0.00;;
61112;SDS011;47184;57.998;56.184;2023-08-12T06:09:28;0.00;;;0.00;;
61112;SDS011;47184;57.998;56.184;2023-08-12T06:11:55;0.00;;;0.00;;
61112;SDS011;47184;57.998;56.184;2023-08-12T06:14:21;0.00;;;0.00;;
61112;SDS011;47184;57.998;56.184;2023-08-12T06:16:48;0.00;;;0.00;;
61112;SDS011;47184;57.998;56.184;2023-08-12T06:19:14;0.10;;;0.00;;
61112;SDS011;47184;57.998;56.184;2023-08-12T06:21:40;0.00;;;0.00;;
61112;SDS011;47184;57.998;56.184;2023-08-12T06:24:06;0.00;;;0.00;;
61112;SDS011;47184;57.998;56.184;2023-08-12T06:26:32;0.00;;;0.00;;
61112;SDS011;47184;57.998;56.184;2023-08-12T06:28:58;0.00;;;0.00;;
61112;SDS011;47184;57.998;56.184;2023-08-12T06:31:24;0.00;;;0.00;;
61112;SDS011;47184;57.998;56.184;2023-08-12T06:33:50;0.10;;;0.05;;
61112;SDS011;47184;57.998;56.184;2023-08-12T06:36:16;0.00;;;0.00;;
61112;SDS011;47184;57.998;56.184;2023-08-12T06:38:43;0.00;;;0.00;;
61112;SDS011;47184;57.998;56.184;2023-08-12T06:41:09;0.00;;;0.00;;
61112;SDS011;47184;57.998;56.184;2023-08-12T06:43:35;0.00;;;0.00;;
61112;SDS011;47184;57.998;56.184;2023-08-12T06:46:04;0.00;;;0.00;;
61112;SDS011;47184;57.998;56.184;2023-08-12T06:48:30;0.00;;;0.00;;
61112;SDS011;47184;57.998;56.184;2023-08-12T06:50:56;0.00;;;0.00;;
61112;SDS011;47184;57.998;56.184;2023-08-12T06:53:22;0.00;;;0.00;;
61112;SDS011;47184;57.998;56.184;2023-08-12T06:55:50;0.00;;;0.00;;
61112;SDS011;47184;57.998;56.184;2023-08-12T06:58:16;0.00;;;0.00;;
61112;SDS011;47184;57.998;56.184;2023-08-12T07:00:42;0.00;;;0.00;;
61112;SDS011;47184;57.998;56.184;2023-08-12T07:03:08;0.03;;;0.03;;
61112;SDS011;47184;57.998;56.184;2023-08-12T07:05:34;0.10;;;0.10;;
61112;SDS011;47184;57.998;56.184;2023-08-12T07:08:00;0.10;;;0.10;;
61112;SDS011;47184;57.998;56.184;2023-08-12T07:10:26;0.10;;;0.10;;
61112;SDS011;47184;57.998;56.184;2023-08-12T07:12:52;0.10;;;0.10;;
61112;SDS011;47184;57.998;56.184;2023-08-12T07:15:18;0.10;;;0.10;;
61112;SDS011;47184;57.998;56.184;2023-08-12T07:17:44;0.10;;;0.10;;
61112;SDS011;47184;57.998;56.184;2023-08-12T07:20:10;0.10;;;0.10;;
61112;SDS011;47184;57.998;56.184;2023-08-12T07:22:39;0.00;;;0.00;;
61112;SDS011;47184;57.998;56.184;2023-08-12T07:25:05;0.10;;;0.10;;
61112;SDS011;47184;57.998;56.184;2023-08-12T07:27:31;0.10;;;0.10;;
61112;SDS011;47184;57.998;56.184;2023-08-12T07:29:57;0.10;;;0.10;;
61112;SDS011;47184;57.998;56.184;2023-08-12T07:32:23;0.10;;;0.10;;
61112;SDS011;47184;57.998;56.184;2023-08-12T07:34:49;0.10;;;0.10;;
61112;SDS011;47184;57.998;56.184;2023-08-12T07:37:15;0.10;;;0.10;;
61112;SDS011;47184;57.998;56.184;2023-08-12T07:39:41;0.10;;;0.10;;
61112;SDS011;47184;57.998;56.184;2023-08-12T07:42:07;0.10;;;0.10;;
61112;SDS011;47184;57.998;56.184;2023-08-12T07:44:36;0.10;;;0.10;;
61112;SDS011;47184;57.998;56.184;2023-08-12T07:47:02;0.10;;;0.10;;
61112;SDS011;47184;57.998;56.184;2023-08-12T07:49:28;0.10;;;0.10;;
61112;SDS011;47184;57.998;56.184;2023-08-12T07:51:55;0.10;;;0.10;;
61112;SDS011;47184;57.998;56.184;2023-08-12T07:54:21;0.10;;;0.10;;
61112;SDS011;47184;57.998;56.184;2023-08-12T07:56:47;0.20;;;0.20;;
61112;SDS011;47184;57.998;56.184;2023-08-12T07:59:13;0.10;;;0.10;;
61112;SDS011;47184;57.998;56.184;2023-08-12T08:01:39;0.20;;;0.20;;
61112;SDS011;47184;57.998;56.184;2023-08-12T08:04:05;0.20;;;0.20;;
61112;SDS011;47184;57.998;56.184;2023-08-12T08:06:31;0.20;;;0.20;;
61112;SDS011;47184;57.998;56.184;2023-08-12T08:08:57;0.20;;;0.20;;
61112;SDS011;47184;57.998;56.184;2023-08-12T08:11:23;0.20;;;0.20;;
61112;SDS011;47184;57.998;56.184;2023-08-12T08:13:50;0.20;;;0.20;;
61112;SDS011;47184;57.998;56.184;2023-08-12T08:16:16;0.20;;;0.20;;
61112;SDS011;47184;57.998;56.184;2023-08-12T08:18:42;0.15;;;0.15;;
61112;SDS011;47184;57.998;56.184;2023-08-12T08:21:08;0.20;;;0.20;;
61112;SDS011;47184;57.998;56.184;2023-08-12T08:23:34;0.30;;;0.30;;
61112;SDS011;47184;57.998;56.184;2023-08-12T08:26:00;0.20;;;0.20;;
61112;SDS011;47184;57.998;56.184;2023-08-12T08:28:26;0.20;;;0.20;;
61112;SDS011;47184;57.998;56.184;2023-08-12T08:30:53;0.20;;;0.20;;
61112;SDS011;47184;57.998;56.184;2023-08-12T08:33:19;0.25;;;0.25;;
61112;SDS011;47184;57.998;56.184;2023-08-12T08:35:45;0.20;;;0.20;;
61112;SDS011;47184;57.998;56.184;2023-08-12T08:38:11;0.30;;;0.30;;
61112;SDS011;47184;57.998;56.184;2023-08-12T08:40:37;0.20;;;0.20;;
61112;SDS011;47184;57.998;56.184;2023-08-12T08:43:04;0.30;;;0.30;;
61112;SDS011;47184;57.998;56.184;2023-08-12T08:45:33;0.20;;;0.20;;
61112;SDS011;47184;57.998;56.184;2023-08-12T08:48:00;0.30;;;0.30;;
61112;SDS011;47184;57.998;56.184;2023-08-12T08:50:28;0.20;;;0.20;;
61112;SDS011;47184;57.998;56.184;2023-08-12T08:52:56;0.30;;;0.30;;
61112;SDS011;47184;57.998;56.184;2023-08-12T08:55:22;0.30;;;0.30;;
61112;SDS011;47184;57.998;56.184;2023-08-12T08:57:49;0.40;;;0.40;;
61112;SDS011;47184;57.998;56.184;2023-08-12T09:00:16;0.30;;;0.30;;
61112;SDS011;47184;57.998;56.184;2023-08-12T09:02:43;0.50;;;0.50;;
61112;SDS011;47184;57.998;56.184;2023-08-12T09:05:13;0.30;;;0.30;;
61112;SDS011;47184;57.998;56.184;2023-08-12T09:07:41;0.30;;;0.30;;
61112;SDS011;47184;57.998;56.184;2023-08-12T09:10:08;0.20;;;0.20;;
61112;SDS011;47184;57.998;56.184;2023-08-12T09:12:35;0.25;;;0.25;;
61112;SDS011;47184;57.998;56.184;2023-08-12T09:15:05;0.20;;;0.20;;
61112;SDS011;47184;57.998;56.184;2023-08-12T09:17:32;0.30;;;0.30;;
61112;SDS011;47184;57.998;56.184;2023-08-12T09:19:58;0.25;;;0.25;;
61112;SDS011;47184;57.998;56.184;2023-08-12T09:22:25;0.30;;;0.30;;
61112;SDS011;47184;57.998;56.184;2023-08-12T09:24:58;0.40;;;0.40;;
61112;SDS011;47184;57.998;56.184;2023-08-12T09:27:24;0.32;;;0.32;;
61112;SDS011;47184;57.998;56.184;2023-08-12T09:29:51;0.30;;;0.30;;
61112;SDS011;47184;57.998;56.184;2023-08-12T09:32:24;0.30;;;0.30;;
61112;SDS011;47184;57.998;56.184;2023-08-12T09:34:51;0.40;;;0.40;;
61112;SDS011;47184;57.998;56.184;2023-08-12T09:37:19;0.38;;;0.38;;
61112;SDS011;47184;57.998;56.184;2023-08-12T09:39:47;0.40;;;0.40;;
61112;SDS011;47184;57.998;56.184;2023-08-12T09:42:15;0.30;;;0.30;;
61112;SDS011;47184;57.998;56.184;2023-08-12T09:44:41;0.40;;;0.40;;
61112;SDS011;47184;57.998;56.184;2023-08-12T09:47:08;0.40;;;0.40;;
61112;SDS011;47184;57.998;56.184;2023-08-12T09:49:34;0.40;;;0.40;;
61112;SDS011;47184;57.998;56.184;2023-08-12T09:52:01;0.50;;;0.50;;
61112;SDS011;47184;57.998;56.184;2023-08-12T09:54:30;0.50;;;0.50;;
61112;SDS011;47184;57.998;56.184;2023-08-12T09:56:58;0.45;;;0.45;;
61112;SDS011;47184;57.998;56.184;2023-08-12T09:59:32;0.50;;;0.50;;
61112;SDS011;47184;57.998;56.184;2023-08-12T10:02:03;0.50;;;0.50;;
61112;SDS011;47184;57.998;56.184;2023-08-12T10:04:33;0.55;;;0.55;;
61112;SDS011;47184;57.998;56.184;2023-08-12T10:07:10;0.60;;;0.60;;
61112;SDS011;47184;57.998;56.184;2023-08-12T10:09:41;0.60;;;0.60;;
61112;SDS011;47184;57.998;56.184;2023-08-12T10:12:08;0.43;;;0.43;;
61112;SDS011;47184;57.998;56.184;2023-08-12T10:14:35;0.60;;;0.60;;
61112;SDS011;47184;57.998;56.184;2023-08-12T10:17:02;0.60;;;0.60;;
61112;SDS011;47184;57.998;56.184;2023-08-12T10:19:28;0.60;;;0.60;;
61112;SDS011;47184;57.998;56.184;2023-08-12T10:21:56;0.70;;;0.70;;
61112;SDS011;47184;57.998;56.184;2023-08-12T10:24:28;0.60;;;0.60;;
61112;SDS011;47184;57.998;56.184;2023-08-12T10:26:56;0.67;;;0.67;;
61112;SDS011;47184;57.998;56.184;2023-08-12T10:29:22;0.60;;;0.60;;
61112;SDS011;47184;57.998;56.184;2023-08-12T10:31:50;0.63;;;0.63;;
61112;SDS011;47184;57.998;56.184;2023-08-12T10:34:24;0.50;;;0.50;;
61112;SDS011;47184;57.998;56.184;2023-08-12T10:36:57;0.68;;;0.68;;
61112;SDS011;47184;57.998;56.184;2023-08-12T10:39:28;0.50;;;0.50;;
61112;SDS011;47184;57.998;56.184;2023-08-12T10:41:58;0.60;;;0.60;;
61112;SDS011;47184;57.998;56.184;2023-08-12T10:45:11;0.70;;;0.70;;
61112;SDS011;47184;57.998;56.184;2023-08-12T10:47:17;0.60;;;0.60;;
61112;SDS011;47184;57.998;56.184;2023-08-12T10:49:48;0.60;;;0.60;;
61112;SDS011;47184;57.998;56.184;2023-08-12T10:55:18;0.70;;;0.70;;
61112;SDS011;47184;57.998;56.184;2023-08-12T10:57:46;1.00;;;1.00;;
61112;SDS011;47184;57.998;56.184;2023-08-12T11:00:14;0.63;;;0.63;;
61112;SDS011;47184;57.998;56.184;2023-08-12T11:02:45;0.60;;;0.60;;
61112;SDS011;47184;57.998;56.184;2023-08-12T11:05:14;0.50;;;0.50;;
61112;SDS011;47184;57.998;56.184;2023-08-12T11:07:40;0.60;;;0.60;;
61112;SDS011;47184;57.998;56.184;2023-08-12T11:10:27;0.60;;;0.60;;
61112;SDS011;47184;57.998;56.184;2023-08-12T11:12:57;0.60;;;0.60;;
61112;SDS011;47184;57.998;56.184;2023-08-12T11:15:30;0.60;;;0.60;;
61112;SDS011;47184;57.998;56.184;2023-08-12T11:18:06;0.50;;;0.50;;
61112;SDS011;47184;57.998;56.184;2023-08-12T11:20:34;0.55;;;0.55;;
61112;SDS011;47184;57.998;56.184;2023-08-12T11:23:07;0.55;;;0.55;;
61112;SDS011;47184;57.998;56.184;2023-08-12T11:25:34;0.60;;;0.60;;
61112;SDS011;47184;57.998;56.184;2023-08-12T11:28:03;0.50;;;0.50;;
61112;SDS011;47184;57.998;56.184;2023-08-12T11:30:30;0.50;;;0.50;;
61112;SDS011;47184;57.998;56.184;2023-08-12T11:32:57;0.50;;;0.50;;
61112;SDS011;47184;57.998;56.184;2023-08-12T11:35:25;0.40;;;0.40;;
61112;SDS011;47184;57.998;56.184;2023-08-12T11:37:52;0.40;;;0.40;;
61112;SDS011;47184;57.998;56.184;2023-08-12T11:40:21;0.40;;;0.40;;
61112;SDS011;47184;57.998;56.184;2023-08-12T11:42:49;0.40;;;0.40;;
61112;SDS011;47184;57.998;56.184;2023-08-12T11:45:20;0.50;;;0.50;;
61112;SDS011;47184;57.998;56.184;2023-08-12T11:47:50;0.45;;;0.45;;
61112;SDS011;47184;57.998;56.184;2023-08-12T11:50:20;0.55;;;0.55;;
61112;SDS011;47184;57.998;56.184;2023-08-12T11:52:48;0.60;;;0.60;;
61112;SDS011;47184;57.998;56.184;2023-08-12T11:55:15;0.50;;;0.50;;
61112;SDS011;47184;57.998;56.184;2023-08-12T11:57:42;0.70;;;0.70;;
61112;SDS011;47184;57.998;56.184;2023-08-12T12:00:10;0.50;;;0.50;;
61112;SDS011;47184;57.998;56.184;2023-08-12T12:02:45;0.65;;;0.65;;
61112;SDS011;47184;57.998;56.184;2023-08-12T12:05:14;0.47;;;0.47;;
61112;SDS011;47184;57.998;56.184;2023-08-12T12:07:41;0.60;;;0.60;;
61112;SDS011;47184;57.998;56.184;2023-08-12T12:10:13;0.60;;;0.60;;
61112;SDS011;47184;57.998;56.184;2023-08-12T12:15:07;0.50;;;0.50;;
61112;SDS011;47184;57.998;56.184;2023-08-12T12:17:38;0.60;;;0.60;;
61112;SDS011;47184;57.998;56.184;2023-08-12T12:20:06;0.40;;;0.40;;
61112;SDS011;47184;57.998;56.184;2023-08-12T12:22:36;0.43;;;0.43;;
61112;SDS011;47184;57.998;56.184;2023-08-12T12:25:07;0.50;;;0.50;;
61112;SDS011;47184;57.998;56.184;2023-08-12T12:27:35;0.35;;;0.35;;
61112;SDS011;47184;57.998;56.184;2023-08-12T12:30:02;0.40;;;0.40;;
61112;SDS011;47184;57.998;56.184;2023-08-12T12:32:33;0.40;;;0.40;;
61112;SDS011;47184;57.998;56.184;2023-08-12T12:35:00;0.35;;;0.35;;
61112;SDS011;47184;57.998;56.184;2023-08-12T12:37:31;0.40;;;0.40;;
61112;SDS011;47184;57.998;56.184;2023-08-12T12:39:57;0.50;;;0.50;;
61112;SDS011;47184;57.998;56.184;2023-08-12T12:42:23;0.50;;;0.50;;
61112;SDS011;47184;57.998;56.184;2023-08-12T12:44:49;0.40;;;0.40;;
61112;SDS011;47184;57.998;56.184;2023-08-12T12:47:16;0.60;;;0.60;;
61112;SDS011;47184;57.998;56.184;2023-08-12T12:49:44;0.60;;;0.60;;
61112;SDS011;47184;57.998;56.184;2023-08-12T12:52:11;0.40;;;0.40;;
61112;SDS011;47184;57.998;56.184;2023-08-12T12:54:37;0.30;;;0.30;;
61112;SDS011;47184;57.998;56.184;2023-08-12T12:57:03;0.50;;;0.50;;
61112;SDS011;47184;57.998;56.184;2023-08-12T12:59:30;0.40;;;0.40;;
61112;SDS011;47184;57.998;56.184;2023-08-12T13:01:56;0.40;;;0.40;;
61112;SDS011;47184;57.998;56.184;2023-08-12T13:04:22;0.47;;;0.47;;
61112;SDS011;47184;57.998;56.184;2023-08-12T13:06:48;0.50;;;0.50;;
61112;SDS011;47184;57.998;56.184;2023-08-12T13:09:14;0.50;;;0.50;;
61112;SDS011;47184;57.998;56.184;2023-08-12T13:11:40;0.40;;;0.40;;
61112;SDS011;47184;57.998;56.184;2023-08-12T13:14:06;0.50;;;0.50;;
61112;SDS011;47184;57.998;56.184;2023-08-12T13:16:32;0.40;;;0.40;;
61112;SDS011;47184;57.998;56.184;2023-08-12T13:18:58;0.40;;;0.40;;
61112;SDS011;47184;57.998;56.184;2023-08-12T13:21:25;0.40;;;0.40;;
61112;SDS011;47184;57.998;56.184;2023-08-12T13:23:52;0.30;;;0.30;;
61112;SDS011;47184;57.998;56.184;2023-08-12T13:26:21;0.40;;;0.40;;
61112;SDS011;47184;57.998;56.184;2023-08-12T13:28:47;0.40;;;0.40;;
61112;SDS011;47184;57.998;56.184;2023-08-12T13:31:14;0.30;;;0.30;;
61112;SDS011;47184;57.998;56.184;2023-08-12T13:33:40;0.30;;;0.30;;
61112;SDS011;47184;57.998;56.184;2023-08-12T13:36:07;0.30;;;0.30;;
61112;SDS011;47184;57.998;56.184;2023-08-12T13:38:33;0.40;;;0.40;;
61112;SDS011;47184;57.998;56.184;2023-08-12T13:40:59;0.30;;;0.30;;
61112;SDS011;47184;57.998;56.184;2023-08-12T13:43:25;0.20;;;0.20;;
61112;SDS011;47184;57.998;56.184;2023-08-12T13:45:51;0.30;;;0.30;;
61112;SDS011;47184;57.998;56.184;2023-08-12T13:48:17;0.32;;;0.32;;
61112;SDS011;47184;57.998;56.184;2023-08-12T13:50:43;0.28;;;0.28;;
61112;SDS011;47184;57.998;56.184;2023-08-12T13:53:09;0.30;;;0.30;;
61112;SDS011;47184;57.998;56.184;2023-08-12T13:55:36;0.30;;;0.30;;
61112;SDS011;47184;57.998;56.184;2023-08-12T13:58:02;0.22;;;0.22;;
61112;SDS011;47184;57.998;56.184;2023-08-12T14:00:28;0.30;;;0.30;;
61112;SDS011;47184;57.998;56.184;2023-08-12T14:02:54;0.20;;;0.20;;
61112;SDS011;47184;57.998;56.184;2023-08-12T14:05:20;0.20;;;0.20;;
61112;SDS011;47184;57.998;56.184;2023-08-12T14:07:46;0.10;;;0.10;;
61112;SDS011;47184;57.998;56.184;2023-08-12T14:10:12;0.10;;;0.10;;
61112;SDS011;47184;57.998;56.184;2023-08-12T14:12:38;0.00;;;0.00;;
61112;SDS011;47184;57.998;56.184;2023-08-12T14:15:05;0.00;;;0.00;;
61112;SDS011;47184;57.998;56.184;2023-08-12T14:17:32;0.00;;;0.00;;
61112;SDS011;47184;57.998;56.184;2023-08-12T14:19:58;0.00;;;0.00;;
61112;SDS011;47184;57.998;56.184;2023-08-12T14:22:26;0.00;;;0.00;;
61112;SDS011;47184;57.998;56.184;2023-08-12T14:24:52;0.00;;;0.00;;
61112;SDS011;47184;57.998;56.184;2023-08-12T14:27:19;0.00;;;0.00;;
61112;SDS011;47184;57.998;56.184;2023-08-12T14:29:45;0.00;;;0.00;;
61112;SDS011;47184;57.998;56.184;2023-08-12T14:32:12;0.00;;;0.00;;
61112;SDS011;47184;57.998;56.184;2023-08-12T14:34:38;0.00;;;0.00;;
61112;SDS011;47184;57.998;56.184;2023-08-12T14:37:04;0.00;;;0.00;;
61112;SDS011;47184;57.998;56.184;2023-08-12T14:39:30;0.00;;;0.00;;
61112;SDS011;47184;57.998;56.184;2023-08-12T14:41:57;0.00;;;0.00;;